Terminal Aerodrome Forecast
Issued by NWS Charleston, WV

Current Version | Previous Version | Text Only | Print | Product List | Glossary Off
Versions: 1 2 3 4 5 6 7 8 9 10 11 12 13 14 15 16 17 18 19 20 21 22 23 24 25

000
FTUS41 KRLX 010533
TAFCRW
TAF
KCRW 010533Z 0106/0206 00000KT P6SM SKC
     FM010700 00000KT 4SM BR FEW001
     FM010800 00000KT 3SM BR BKN001
     FM011000 00000KT 1/2SM FG BKN001
     FM011200 VRB04KT 6SM BR FEW025
     FM011300 VRB03KT P6SM SCT050=

USA.gov is the U.S. government's official web portal to all federal, state and local government web resources and services.